createdAt,value
2018-04-02T00:01:22.743Z,29.73
2018-04-02T00:03:49.652Z,28.17
2018-04-02T00:06:15.803Z,28.73
2018-04-02T00:08:41.984Z,30.90
2018-04-02T00:11:08.162Z,28.20
2018-04-02T00:13:35.077Z,30.52
2018-04-02T00:16:01.223Z,28.95
2018-04-02T00:18:28.150Z,28.95
2018-04-02T00:20:54.315Z,29.90
2018-04-02T00:23:21.256Z,28.77
2018-04-02T00:25:48.150Z,29.30
2018-04-02T00:28:14.315Z,30.05
2018-04-02T00:30:41.262Z,29.92
2018-04-02T00:33:08.188Z,27.23
2018-04-02T00:35:34.333Z,28.87
2018-04-02T00:38:01.263Z,28.10
2018-04-02T00:40:27.443Z,28.03
2018-04-02T00:42:53.633Z,27.23
2018-04-02T00:45:20.562Z,28.48
2018-04-02T00:47:46.741Z,26.90
2018-04-02T00:50:12.909Z,26.60
2018-04-02T00:52:39.103Z,27.50
2018-04-02T00:55:05.980Z,27.73
2018-04-02T00:57:32.161Z,28.10
2018-04-02T00:59:58.338Z,26.83
2018-04-02T01:02:25.233Z,28.60
2018-04-02T01:04:51.405Z,27.37
2018-04-02T01:07:17.564Z,27.67
2018-04-02T01:09:43.862Z,27.37
2018-04-02T01:12:10.767Z,27.50
2018-04-02T01:14:36.920Z,27.60
2018-04-02T01:17:03.103Z,27.27
2018-04-02T01:19:29.272Z,27.13
2018-04-02T01:21:55.395Z,28.50
2018-04-02T01:24:21.602Z,27.90
2018-04-02T01:26:47.781Z,26.87
2018-04-02T01:29:13.984Z,28.17
2018-04-02T01:31:40.174Z,27.03
2018-04-02T01:34:07.096Z,27.67
2018-04-02T01:36:33.237Z,26.50
2018-04-02T01:38:59.417Z,26.08
2018-04-02T01:41:26.309Z,26.02
2018-04-02T01:43:52.449Z,26.40
2018-04-02T01:46:18.647Z,27.30
2018-04-02T01:48:44.800Z,25.95
2018-04-02T01:51:11.001Z,26.37
2018-04-02T01:53:37.172Z,24.40
2018-04-02T01:56:03.315Z,23.77
2018-04-02T01:58:30.235Z,24.20
2018-04-02T02:00:56.420Z,25.35
2018-04-02T02:03:22.614Z,25.00
2018-04-02T02:05:49.544Z,26.53
2018-04-02T02:08:15.737Z,25.85
2018-04-02T02:10:42.730Z,25.95
2018-04-02T02:13:09.614Z,27.85
2018-04-02T02:15:35.777Z,28.65
2018-04-02T02:18:01.998Z,27.25
2018-04-02T02:20:28.192Z,29.87
2018-04-02T02:22:54.381Z,28.25
2018-04-02T02:25:21.317Z,30.42
2018-04-02T02:27:48.227Z,28.77
2018-04-02T02:30:14.398Z,31.30
2018-04-02T02:32:40.574Z,31.95
2018-04-02T02:35:06.768Z,31.97
2018-04-02T02:37:32.918Z,30.23
2018-04-02T02:39:59.093Z,31.77
2018-04-02T02:42:26.019Z,32.30
2018-04-02T02:44:52.208Z,31.45
2018-04-02T02:47:18.409Z,30.97
2018-04-02T02:49:44.562Z,30.40
2018-04-02T02:52:10.710Z,31.98
2018-04-02T02:54:36.892Z,33.05
2018-04-02T02:57:03.051Z,32.15
2018-04-02T02:59:29.219Z,34.20
2018-04-02T03:01:56.124Z,32.80
2018-04-02T03:04:22.273Z,34.42
2018-04-02T03:06:48.437Z,36.58
2018-04-02T03:09:14.622Z,35.25
2018-04-02T03:11:40.815Z,34.47
2018-04-02T03:14:07.049Z,34.40
2018-04-02T03:16:33.211Z,34.55
2018-04-02T03:18:59.383Z,34.47
2018-04-02T03:21:25.589Z,36.30
2018-04-02T03:23:51.763Z,33.90
2018-04-02T03:26:17.932Z,34.95
2018-04-02T03:28:44.840Z,34.47
2018-04-02T03:31:10.998Z,33.20
2018-04-02T03:33:37.908Z,33.38
2018-04-02T03:36:04.071Z,35.10
2018-04-02T03:38:30.270Z,35.63
2018-04-02T03:40:56.424Z,36.55
2018-04-02T03:43:23.355Z,33.85
2018-04-02T03:45:49.518Z,35.47
2018-04-02T03:48:15.664Z,36.58
2018-04-02T03:50:41.824Z,34.75
2018-04-02T03:53:08.012Z,36.95
2018-04-02T03:55:34.201Z,37.13
2018-04-02T03:58:01.109Z,35.70
2018-04-02T04:00:27.268Z,35.90
2018-04-02T04:02:54.170Z,34.85
2018-04-02T04:05:20.361Z,36.25
2018-04-02T04:07:46.507Z,35.30
2018-04-02T04:10:12.657Z,35.83
2018-04-02T04:12:38.899Z,35.63
2018-04-02T04:15:05.082Z,36.10
2018-04-02T04:17:31.228Z,37.08
2018-04-02T04:19:57.408Z,37.08
2018-04-02T04:22:23.563Z,38.85
2018-04-02T04:24:49.710Z,38.37
2018-04-02T04:27:15.896Z,38.13
2018-04-02T04:29:42.050Z,37.90
2018-04-02T04:32:08.946Z,40.60
2018-04-02T04:34:35.139Z,38.75
2018-04-02T04:37:01.310Z,40.80
2018-04-02T04:39:27.434Z,40.25
2018-04-02T04:41:53.597Z,39.92
2018-04-02T04:44:19.752Z,42.20
2018-04-02T04:46:45.925Z,42.22
2018-04-02T04:49:12.082Z,39.47
2018-04-02T04:51:38.288Z,41.90
2018-04-02T04:54:04.444Z,38.63
2018-04-02T04:56:30.608Z,39.55
2018-04-02T04:58:56.768Z,38.35
2018-04-02T05:01:22.915Z,39.33
2018-04-02T05:03:49.080Z,40.58
2018-04-02T05:06:15.226Z,45.30
2018-04-02T05:08:41.391Z,40.80
2018-04-02T05:11:07.574Z,39.38
2018-04-02T05:13:33.877Z,41.47
2018-04-02T05:16:00.784Z,39.20
2018-04-02T05:18:27.163Z,34.65
2018-04-02T05:20:53.319Z,37.45
2018-04-02T05:23:19.504Z,38.00
2018-04-02T05:25:46.421Z,42.20
2018-04-02T05:28:12.594Z,41.37
2018-04-02T05:30:38.748Z,34.03
2018-04-02T05:33:04.918Z,35.80
2018-04-02T05:35:31.809Z,31.67
2018-04-02T05:37:58.029Z,31.10
2018-04-02T05:40:24.257Z,29.40
2018-04-02T05:42:50.440Z,27.83
2018-04-02T05:45:16.624Z,28.90
2018-04-02T05:47:42.801Z,28.50
2018-04-02T05:50:09.725Z,28.95
2018-04-02T05:52:35.888Z,28.38
2018-04-02T05:55:02.100Z,28.35
2018-04-02T05:57:29.011Z,28.73
2018-04-02T05:59:55.174Z,27.77
2018-04-02T06:02:22.082Z,28.30
2018-04-02T06:04:48.260Z,29.17
2018-04-02T06:07:14.478Z,28.42
2018-04-02T06:09:40.719Z,28.33
2018-04-02T06:12:06.926Z,30.55
2018-04-02T06:14:33.186Z,27.48
2018-04-02T06:17:00.784Z,27.00
2018-04-02T06:19:27.008Z,26.20
2018-04-02T06:21:53.244Z,26.60
2018-04-02T06:24:19.523Z,26.05
2018-04-02T06:26:45.849Z,25.77
2018-04-02T06:29:12.082Z,27.27
2018-04-02T06:31:38.317Z,25.35
2018-04-02T06:34:04.562Z,25.52
2018-04-02T06:36:30.807Z,24.43
2018-04-02T06:38:57.055Z,23.50
2018-04-02T06:41:24.019Z,24.00
2018-04-02T06:43:50.245Z,23.98
2018-04-02T06:46:16.496Z,23.17
2018-04-02T06:48:42.831Z,23.07
2018-04-02T06:51:09.087Z,23.87
2018-04-02T06:53:35.305Z,23.30
2018-04-02T06:56:01.723Z,25.55
2018-04-02T06:58:27.987Z,24.27
2018-04-02T07:00:54.227Z,23.38
2018-04-02T07:03:21.244Z,24.55
2018-04-02T07:05:47.449Z,23.27
2018-04-02T07:08:13.716Z,23.92
2018-04-02T07:10:40.513Z,26.50
2018-04-02T07:13:06.797Z,24.70
2018-04-02T07:15:33.876Z,24.00
2018-04-02T07:18:00.080Z,22.87
2018-04-02T07:20:27.126Z,24.52
2018-04-02T07:22:54.199Z,22.85
2018-04-02T07:25:20.425Z,22.75
2018-04-02T07:27:46.676Z,23.60
2018-04-02T07:30:13.586Z,21.70
2018-04-02T07:32:39.797Z,22.95
2018-04-02T07:35:06.772Z,21.25
2018-04-02T07:37:33.011Z,22.20
2018-04-02T07:39:59.217Z,21.95
2018-04-02T07:42:25.468Z,25.75
2018-04-02T07:44:51.755Z,22.42
2018-04-02T07:47:18.763Z,23.20
2018-04-02T07:49:45.015Z,22.52
2018-04-02T07:52:11.333Z,20.85
2018-04-02T07:54:37.594Z,21.73
2018-04-02T07:57:03.828Z,24.60
2018-04-02T07:59:30.100Z,26.60
2018-04-02T08:01:56.382Z,27.70
2018-04-02T08:04:22.589Z,49.47
2018-04-02T08:06:48.893Z,43.92
2018-04-02T08:09:15.152Z,28.15
2018-04-02T08:11:42.128Z,29.63
2018-04-02T08:14:08.384Z,18.70
2018-04-02T08:16:34.736Z,36.03
2018-04-02T08:19:01.340Z,20.42
2018-04-02T08:21:34.368Z,16.50
2018-04-02T08:24:37.582Z,15.05
2018-04-02T08:27:10.137Z,17.67
2018-04-02T08:33:04.235Z,16.87
2018-04-02T08:35:32.341Z,21.47
2018-04-02T08:41:18.956Z,14.83
2018-04-02T08:46:19.769Z,14.98
2018-04-02T08:48:46.671Z,15.88
2018-04-02T08:51:13.193Z,15.45
2018-04-02T08:53:39.690Z,17.55
2018-04-02T08:56:06.978Z,16.15
2018-04-02T08:58:33.773Z,16.25
2018-04-02T09:01:01.084Z,18.55
2018-04-02T09:03:27.562Z,20.35
2018-04-02T09:05:54.011Z,21.15
2018-04-02T09:08:20.528Z,20.33
2018-04-02T09:10:47.056Z,20.40
2018-04-02T09:13:13.534Z,23.20
2018-04-02T09:15:39.919Z,20.60
2018-04-02T09:18:06.361Z,24.45
2018-04-02T09:20:33.688Z,23.67
2018-04-02T09:23:00.120Z,24.50
2018-04-02T09:25:26.675Z,23.55
2018-04-02T09:27:53.719Z,23.08
2018-04-02T09:30:20.547Z,22.23
2018-04-02T09:32:48.214Z,24.08
2018-04-02T09:35:15.000Z,23.52
2018-04-02T09:37:41.513Z,23.45
2018-04-02T09:40:08.860Z,22.73
2018-04-02T09:42:36.428Z,22.40
2018-04-02T09:45:03.027Z,22.52
2018-04-02T09:47:29.866Z,22.95
2018-04-02T09:49:56.892Z,24.73
2018-04-02T09:52:23.317Z,21.52
2018-04-02T09:54:49.883Z,21.30
2018-04-02T09:57:16.359Z,23.02
2018-04-02T09:59:42.845Z,23.15
2018-04-02T10:02:13.292Z,20.40
2018-04-02T10:04:43.030Z,21.50
2018-04-02T10:07:09.397Z,22.85
2018-04-02T10:09:40.883Z,20.73
2018-04-02T10:12:07.467Z,20.20
2018-04-02T10:14:35.547Z,20.20
2018-04-02T10:17:02.104Z,19.55
2018-04-02T10:19:28.638Z,19.73
2018-04-02T10:21:55.102Z,20.52
2018-04-02T10:24:22.532Z,17.02
2018-04-02T10:26:49.491Z,19.00
2018-04-02T10:29:15.898Z,30.40
2018-04-02T10:31:42.771Z,16.37
2018-04-02T10:34:09.923Z,16.55
2018-04-02T10:36:36.766Z,17.42
2018-04-02T10:39:03.404Z,19.42
2018-04-02T10:41:30.160Z,19.00
2018-04-02T10:43:57.184Z,19.40
2018-04-02T10:46:24.192Z,16.98
2018-04-02T10:48:50.782Z,15.85
2018-04-02T10:51:17.322Z,18.40
2018-04-02T10:53:44.246Z,18.23
2018-04-02T10:56:11.690Z,14.73
2018-04-02T10:58:40.802Z,15.05
2018-04-02T11:01:07.807Z,15.23
2018-04-02T11:03:34.376Z,12.40
2018-04-02T11:06:01.715Z,12.32
2018-04-02T11:08:29.387Z,14.15
2018-04-02T11:10:56.865Z,12.32
2018-04-02T11:13:24.077Z,12.68
2018-04-02T11:15:50.806Z,12.93
2018-04-02T11:18:18.465Z,12.30
2018-04-02T11:20:45.647Z,11.77
2018-04-02T11:23:14.267Z,12.18
2018-04-02T11:25:41.686Z,12.85
2018-04-02T11:28:08.530Z,12.65
2018-04-02T11:30:35.771Z,14.35
2018-04-02T11:33:02.711Z,11.65
2018-04-02T11:35:29.311Z,14.50
2018-04-02T11:37:56.016Z,13.15
2018-04-02T11:40:22.592Z,14.35
2018-04-02T11:42:50.293Z,11.77
2018-04-02T11:45:16.832Z,12.95
2018-04-02T11:47:43.402Z,11.20
2018-04-02T11:50:10.432Z,11.90
2018-04-02T11:52:37.594Z,15.55
2018-04-02T11:55:05.138Z,12.60
2018-04-02T11:57:32.779Z,13.38
2018-04-02T11:59:59.353Z,12.85
2018-04-02T12:02:26.939Z,14.50
2018-04-02T12:04:55.549Z,12.10
2018-04-02T12:07:22.806Z,11.65
2018-04-02T12:09:49.825Z,10.85
2018-04-02T12:12:16.983Z,15.65
2018-04-02T12:14:44.034Z,11.40
2018-04-02T12:17:10.646Z,12.25
2018-04-02T12:19:37.431Z,11.70
2018-04-02T12:22:04.563Z,13.10
2018-04-02T12:24:31.141Z,14.18
2018-04-02T12:26:57.934Z,12.70
2018-04-02T12:29:24.357Z,14.15
2018-04-02T12:31:51.529Z,12.15
2018-04-02T12:34:18.022Z,12.13
2018-04-02T12:36:44.802Z,14.38
2018-04-02T12:39:12.137Z,12.82
2018-04-02T12:41:38.674Z,12.30
2018-04-02T12:44:05.166Z,13.10
2018-04-02T12:46:31.626Z,12.70
2018-04-02T12:48:58.132Z,14.02
2018-04-02T12:51:24.542Z,12.50
2018-04-02T12:53:51.064Z,12.53
2018-04-02T12:56:17.591Z,12.45
2018-04-02T12:58:44.231Z,12.30
2018-04-02T13:01:10.765Z,11.68
2018-04-02T13:03:37.409Z,11.98
2018-04-02T13:06:03.899Z,12.32
2018-04-02T13:08:30.525Z,12.90
2018-04-02T13:10:58.059Z,13.55
2018-04-02T13:13:26.005Z,14.45
2018-04-02T13:15:52.709Z,12.05
2018-04-02T13:18:19.288Z,12.20
2018-04-02T13:20:46.541Z,12.15
2018-04-02T13:23:13.200Z,11.55
2018-04-02T13:25:39.633Z,11.05
2018-04-02T13:28:06.218Z,10.15
2018-04-02T13:30:33.691Z,10.75
2018-04-02T13:33:00.246Z,11.82
2018-04-02T13:35:26.690Z,11.90
2018-04-02T13:37:53.312Z,11.90
2018-04-02T13:40:19.782Z,11.48
2018-04-02T13:42:46.213Z,11.67
2018-04-02T13:45:12.687Z,13.60
2018-04-02T13:47:39.091Z,12.23
2018-04-02T13:50:05.562Z,11.45
2018-04-02T13:52:32.021Z,11.48
2018-04-02T13:54:58.232Z,11.93
2018-04-02T13:57:25.334Z,10.60
2018-04-02T13:59:51.969Z,11.10
2018-04-02T14:02:18.397Z,10.57
2018-04-02T14:04:44.916Z,10.70
2018-04-02T14:07:11.307Z,10.60
2018-04-02T14:09:38.446Z,10.88
2018-04-02T14:12:05.045Z,10.10
2018-04-02T14:14:31.611Z,9.95
2018-04-02T14:16:58.067Z,9.65
2018-04-02T14:19:24.496Z,9.90
2018-04-02T14:21:50.932Z,10.00
2018-04-02T14:24:17.396Z,9.10
2018-04-02T14:26:44.879Z,9.95
2018-04-02T14:29:11.328Z,9.90
2018-04-02T14:31:37.737Z,9.35
2018-04-02T14:34:04.174Z,10.63
2018-04-02T14:36:30.636Z,8.23
2018-04-02T14:38:57.115Z,8.70
2018-04-02T14:41:23.572Z,9.55
2018-04-02T14:43:50.039Z,10.10
2018-04-02T14:46:16.388Z,10.13
2018-04-02T14:48:42.909Z,9.15
2018-04-02T14:51:10.076Z,8.88
2018-04-02T14:53:36.566Z,10.13
2018-04-02T14:56:03.010Z,10.32
2018-04-02T14:58:29.744Z,8.80
2018-04-02T15:00:56.464Z,9.80
2018-04-02T15:03:22.873Z,9.38
2018-04-02T15:05:49.362Z,8.80
2018-04-02T15:08:15.830Z,9.75
2018-04-02T15:10:42.392Z,9.90
2018-04-02T15:13:08.824Z,9.15
2018-04-02T15:15:35.280Z,9.20
2018-04-02T15:18:02.670Z,8.55
2018-04-02T15:20:29.062Z,9.70
2018-04-02T15:22:55.555Z,9.30
2018-04-02T15:25:22.093Z,9.30
2018-04-02T15:27:48.552Z,9.20
2018-04-02T15:30:15.048Z,9.30
2018-04-02T15:32:41.490Z,8.60
2018-04-02T15:35:07.876Z,9.05
2018-04-02T15:37:34.336Z,9.02
2018-04-02T15:40:01.624Z,8.00
2018-04-02T15:42:28.184Z,8.85
2018-04-02T15:44:55.589Z,8.80
2018-04-02T15:47:22.091Z,8.13
2018-04-02T15:49:48.695Z,7.90
2018-04-02T15:52:15.111Z,8.45
2018-04-02T15:54:42.360Z,8.55
2018-04-02T15:57:08.854Z,7.67
2018-04-02T15:59:36.021Z,8.17
2018-04-02T16:02:02.484Z,8.68
2018-04-02T16:04:29.392Z,8.52
2018-04-02T16:06:55.742Z,8.77
2018-04-02T16:09:22.296Z,8.43
2018-04-02T16:11:48.822Z,8.40
2018-04-02T16:14:15.217Z,8.52
2018-04-02T16:16:42.061Z,8.80
2018-04-02T16:19:08.561Z,8.82
2018-04-02T16:21:35.029Z,9.02
2018-04-02T16:24:02.460Z,9.03
2018-04-02T16:26:28.947Z,10.90
2018-04-02T16:28:56.168Z,11.05
2018-04-02T16:31:22.673Z,10.25
2018-04-02T16:33:49.893Z,11.60
2018-04-02T16:36:16.301Z,12.37
2018-04-02T16:38:42.729Z,10.75
2018-04-02T16:41:09.251Z,12.05
2018-04-02T16:43:36.318Z,12.20
2018-04-02T16:46:02.735Z,12.65
2018-04-02T16:48:29.141Z,11.77
2018-04-02T16:50:56.241Z,11.25
2018-04-02T16:53:22.580Z,11.65
2018-04-02T16:55:48.995Z,12.02
2018-04-02T16:58:15.317Z,12.10
2018-04-02T17:00:41.817Z,12.20
2018-04-02T17:03:08.860Z,12.68
2018-04-02T17:05:35.402Z,13.32
2018-04-02T17:08:01.830Z,12.27
2018-04-02T17:10:28.263Z,12.65
2018-04-02T17:12:54.697Z,12.50
2018-04-02T17:15:21.994Z,12.77
2018-04-02T17:17:48.502Z,15.63
2018-04-02T17:20:15.513Z,16.83
2018-04-02T17:22:42.034Z,15.93
2018-04-02T17:25:11.577Z,14.90
2018-04-02T17:27:44.906Z,13.40
2018-04-02T17:30:19.941Z,17.73
2018-04-02T17:32:55.216Z,14.45
2018-04-02T17:35:25.584Z,14.35
2018-04-02T17:38:04.505Z,13.07
2018-04-02T17:40:36.969Z,12.63
2018-04-02T17:43:12.951Z,11.70
2018-04-02T17:45:49.637Z,10.70
2018-04-02T17:48:25.365Z,9.55
2018-04-02T17:51:01.322Z,9.30
2018-04-02T17:53:34.363Z,10.88
2018-04-02T17:56:11.154Z,10.13
2018-04-02T17:58:47.307Z,11.10
2018-04-02T18:01:22.717Z,12.50
2018-04-02T18:03:57.310Z,11.32
2018-04-02T18:06:35.313Z,12.73
2018-04-02T18:09:13.068Z,12.80
2018-04-02T18:11:49.387Z,12.93
2018-04-02T18:14:23.474Z,13.75
2018-04-02T18:17:01.556Z,13.07
2018-04-02T18:19:38.609Z,12.48
2018-04-02T18:22:20.025Z,12.50
2018-04-02T18:24:57.913Z,13.48
2018-04-02T18:27:39.735Z,11.10
2018-04-02T18:30:17.603Z,11.93
2018-04-02T18:32:53.015Z,39.22
2018-04-02T18:35:32.643Z,13.13
2018-04-02T18:38:02.114Z,11.93
2018-04-02T18:40:38.891Z,12.30
2018-04-02T18:43:18.114Z,10.80
2018-04-02T18:45:55.023Z,11.57
2018-04-02T18:48:31.271Z,10.50
2018-04-02T18:51:06.267Z,11.00
2018-04-02T18:53:42.687Z,10.98
2018-04-02T18:56:18.924Z,11.30
2018-04-02T18:58:55.006Z,14.00
2018-04-02T19:01:31.645Z,13.20
2018-04-02T19:04:10.009Z,13.77
2018-04-02T19:06:44.783Z,12.37
2018-04-02T19:09:23.843Z,12.13
2018-04-02T19:11:55.642Z,13.35
2018-04-02T19:14:33.246Z,19.05
2018-04-02T19:17:11.884Z,14.87
2018-04-02T19:19:46.934Z,12.93
2018-04-02T19:22:23.792Z,14.32
2018-04-02T19:25:00.656Z,15.25
2018-04-02T19:27:36.175Z,17.00
2018-04-02T19:30:16.367Z,10.90
2018-04-02T19:32:52.724Z,11.27
2018-04-02T19:35:31.337Z,13.02
2018-04-02T19:38:08.458Z,10.30
2018-04-02T19:40:44.638Z,10.65
2018-04-02T19:43:21.160Z,12.90
2018-04-02T19:45:57.606Z,12.45
2018-04-02T19:48:33.262Z,11.20
2018-04-02T19:51:12.514Z,10.50
2018-04-02T19:53:49.720Z,10.43
2018-04-02T19:56:28.155Z,11.05
2018-04-02T19:59:05.656Z,9.45
2018-04-02T20:01:37.802Z,9.20
2018-04-02T20:04:15.503Z,9.20
2018-04-02T20:06:50.352Z,8.70
2018-04-02T20:09:28.637Z,9.40
2018-04-02T20:12:05.320Z,8.75
2018-04-02T20:14:40.738Z,8.82
2018-04-02T20:17:17.108Z,8.52
2018-04-02T20:19:44.463Z,8.52
2018-04-02T20:22:11.631Z,8.20
2018-04-02T20:24:40.884Z,8.63
2018-04-02T20:27:08.172Z,8.55
2018-04-02T20:29:34.869Z,8.25
2018-04-02T20:32:01.123Z,8.00
2018-04-02T20:34:28.053Z,8.20
2018-04-02T20:36:54.278Z,8.43
2018-04-02T20:39:20.503Z,7.70
2018-04-02T20:41:46.777Z,8.00
2018-04-02T20:44:13.000Z,7.78
2018-04-02T20:46:39.472Z,7.83
2018-04-02T20:49:06.563Z,8.25
2018-04-02T20:51:32.899Z,7.47
2018-04-02T20:54:00.262Z,7.75
2018-04-02T20:56:26.450Z,7.40
2018-04-02T20:58:52.725Z,7.50
2018-04-02T21:01:18.926Z,7.30
2018-04-02T21:03:46.089Z,7.82
2018-04-02T21:06:12.535Z,7.78
2018-04-02T21:08:39.020Z,7.75
2018-04-02T21:11:05.287Z,7.45
2018-04-02T21:13:32.327Z,7.57
2018-04-02T21:15:59.305Z,7.47
2018-04-02T21:18:25.518Z,7.78
2018-04-02T21:20:51.834Z,7.40
2018-04-02T21:23:18.305Z,7.65
2018-04-02T21:25:44.541Z,7.70
2018-04-02T21:28:11.476Z,7.20
2018-04-02T21:30:37.692Z,7.78
2018-04-02T21:33:03.939Z,7.20
2018-04-02T21:35:30.214Z,7.00
2018-04-02T21:37:57.273Z,7.80
2018-04-02T21:40:23.634Z,7.75
2018-04-02T21:42:49.952Z,7.70
2018-04-02T21:45:16.228Z,7.65
2018-04-02T21:47:43.258Z,7.10
2018-04-02T21:50:09.492Z,7.93
2018-04-02T21:52:35.721Z,7.62
2018-04-02T21:55:02.059Z,7.80
2018-04-02T21:57:28.323Z,7.12
2018-04-02T21:59:54.511Z,7.40
2018-04-02T22:02:20.917Z,7.68
2018-04-02T22:04:47.135Z,6.70
2018-04-02T22:07:13.363Z,7.62
2018-04-02T22:09:39.617Z,6.97
2018-04-02T22:12:05.779Z,7.93
2018-04-02T22:14:32.710Z,7.50
2018-04-02T22:16:59.656Z,6.70
2018-04-02T22:19:26.608Z,7.18
2018-04-02T22:21:54.340Z,6.55
2018-04-02T22:24:20.552Z,7.30
2018-04-02T22:26:46.812Z,7.15
2018-04-02T22:29:13.015Z,7.00
2018-04-02T22:31:39.229Z,7.18
2018-04-02T22:34:06.178Z,6.70
2018-04-02T22:36:32.379Z,6.55
2018-04-02T22:38:58.577Z,6.80
2018-04-02T22:41:24.773Z,6.93
2018-04-02T22:43:50.967Z,6.60
2018-04-02T22:46:17.145Z,6.78
2018-04-02T22:48:43.329Z,6.50
2018-04-02T22:51:09.533Z,6.47
2018-04-02T22:53:35.725Z,6.10
2018-04-02T22:56:01.907Z,6.30
2018-04-02T22:58:28.133Z,5.90
2018-04-02T23:00:54.346Z,5.93
2018-04-02T23:03:20.549Z,6.37
2018-04-02T23:05:47.465Z,6.43
2018-04-02T23:08:13.680Z,6.30
2018-04-02T23:10:39.864Z,6.30
2018-04-02T23:13:06.046Z,6.93
2018-04-02T23:15:32.255Z,6.05
2018-04-02T23:17:58.392Z,6.10
2018-04-02T23:20:24.566Z,6.30
2018-04-02T23:22:51.755Z,5.93
2018-04-02T23:25:17.967Z,6.40
2018-04-02T23:27:44.144Z,5.93
2018-04-02T23:30:11.090Z,5.90
2018-04-02T23:32:37.258Z,5.85
2018-04-02T23:35:03.458Z,5.50
2018-04-02T23:37:29.674Z,5.90
2018-04-02T23:39:56.566Z,5.60
2018-04-02T23:42:22.748Z,5.65
2018-04-02T23:44:49.687Z,6.30
2018-04-02T23:47:17.089Z,5.50
2018-04-02T23:49:43.263Z,5.90
2018-04-02T23:52:09.417Z,5.57
2018-04-02T23:54:35.593Z,5.50
2018-04-02T23:57:01.746Z,5.80
2018-04-02T23:59:28.658Z,5.30
